sensor_id;sensor_type;location;lat;lon;timestamp;temperature;humidity
19552;DHT22;9921;47.186;9.778;2024-01-16T00:01:28;0.80;99.90
19552;DHT22;9921;47.186;9.778;2024-01-16T00:03:55;0.80;99.90
19552;DHT22;9921;47.186;9.778;2024-01-16T00:06:21;0.80;99.90
19552;DHT22;9921;47.186;9.778;2024-01-16T00:08:50;0.80;99.90
19552;DHT22;9921;47.186;9.778;2024-01-16T00:11:16;0.80;99.90
19552;DHT22;9921;47.186;9.778;2024-01-16T00:13:43;0.80;99.90
19552;DHT22;9921;47.186;9.778;2024-01-16T00:16:10;0.70;99.90
19552;DHT22;9921;47.186;9.778;2024-01-16T00:18:37;0.70;99.90
19552;DHT22;9921;47.186;9.778;2024-01-16T00:21:04;0.70;99.90
19552;DHT22;9921;47.186;9.778;2024-01-16T00:23:31;0.70;99.90
19552;DHT22;9921;47.186;9.778;2024-01-16T00:25:59;0.70;99.90
19552;DHT22;9921;47.186;9.778;2024-01-16T00:28:26;0.70;99.90
19552;DHT22;9921;47.186;9.778;2024-01-16T00:30:53;0.60;99.90
19552;DHT22;9921;47.186;9.778;2024-01-16T00:33:20;0.60;99.90
19552;DHT22;9921;47.186;9.778;2024-01-16T00:35:47;0.60;99.90
19552;DHT22;9921;47.186;9.778;2024-01-16T00:38:14;0.60;99.90
19552;DHT22;9921;47.186;9.778;2024-01-16T00:40:41;0.60;99.90
19552;DHT22;9921;47.186;9.778;2024-01-16T00:43:09;0.50;99.90
19552;DHT22;9921;47.186;9.778;2024-01-16T00:45:36;0.50;99.90
19552;DHT22;9921;47.186;9.778;2024-01-16T00:48:03;0.50;99.90
19552;DHT22;9921;47.186;9.778;2024-01-16T00:50:31;0.60;99.90
19552;DHT22;9921;47.186;9.778;2024-01-16T00:52:58;0.50;99.90
19552;DHT22;9921;47.186;9.778;2024-01-16T00:55:25;0.50;99.90
19552;DHT22;9921;47.186;9.778;2024-01-16T00:57:52;0.50;99.90
19552;DHT22;9921;47.186;9.778;2024-01-16T01:00:20;0.50;99.90
19552;DHT22;9921;47.186;9.778;2024-01-16T01:02:47;0.50;99.90
19552;DHT22;9921;47.186;9.778;2024-01-16T01:05:14;0.50;99.90
19552;DHT22;9921;47.186;9.778;2024-01-16T01:07:41;0.50;99.90
19552;DHT22;9921;47.186;9.778;2024-01-16T01:10:09;0.40;99.90
19552;DHT22;9921;47.186;9.778;2024-01-16T01:12:36;0.50;99.90
19552;DHT22;9921;47.186;9.778;2024-01-16T01:15:03;0.50;99.90
19552;DHT22;9921;47.186;9.778;2024-01-16T01:17:31;0.50;99.90
19552;DHT22;9921;47.186;9.778;2024-01-16T01:19:58;0.50;99.90
19552;DHT22;9921;47.186;9.778;2024-01-16T01:22:25;0.50;99.90
19552;DHT22;9921;47.186;9.778;2024-01-16T01:24:52;0.50;99.90
19552;DHT22;9921;47.186;9.778;2024-01-16T01:27:19;0.50;99.90
19552;DHT22;9921;47.186;9.778;2024-01-16T01:29:45;0.50;99.90
19552;DHT22;9921;47.186;9.778;2024-01-16T01:32:12;0.50;99.90
19552;DHT22;9921;47.186;9.778;2024-01-16T01:34:42;0.50;99.90
19552;DHT22;9921;47.186;9.778;2024-01-16T01:37:09;0.60;99.90
19552;DHT22;9921;47.186;9.778;2024-01-16T01:39:36;0.60;99.90
19552;DHT22;9921;47.186;9.778;2024-01-16T01:42:03;0.50;99.90
19552;DHT22;9921;47.186;9.778;2024-01-16T01:44:30;0.50;99.90
19552;DHT22;9921;47.186;9.778;2024-01-16T01:46:57;0.40;99.90
19552;DHT22;9921;47.186;9.778;2024-01-16T01:49:25;0.40;99.90
19552;DHT22;9921;47.186;9.778;2024-01-16T01:51:54;0.40;99.90
19552;DHT22;9921;47.186;9.778;2024-01-16T01:54:22;0.30;99.90
19552;DHT22;9921;47.186;9.778;2024-01-16T01:56:49;0.30;99.90
19552;DHT22;9921;47.186;9.778;2024-01-16T01:59:17;0.30;99.90
19552;DHT22;9921;47.186;9.778;2024-01-16T02:01:45;0.30;99.90
19552;DHT22;9921;47.186;9.778;2024-01-16T02:04:13;0.20;99.90
19552;DHT22;9921;47.186;9.778;2024-01-16T02:06:41;0.20;99.90
19552;DHT22;9921;47.186;9.778;2024-01-16T02:09:09;0.20;99.90
19552;DHT22;9921;47.186;9.778;2024-01-16T02:11:38;0.20;99.90
19552;DHT22;9921;47.186;9.778;2024-01-16T02:14:05;0.20;99.90
19552;DHT22;9921;47.186;9.778;2024-01-16T02:16:36;0.20;99.90
19552;DHT22;9921;47.186;9.778;2024-01-16T02:19:05;0.20;99.90
19552;DHT22;9921;47.186;9.778;2024-01-16T02:21:37;0.10;99.90
19552;DHT22;9921;47.186;9.778;2024-01-16T02:24:05;0.20;99.90
19552;DHT22;9921;47.186;9.778;2024-01-16T02:26:33;0.20;99.90
19552;DHT22;9921;47.186;9.778;2024-01-16T02:29:00;0.20;99.90
19552;DHT22;9921;47.186;9.778;2024-01-16T02:31:27;0.20;99.90
19552;DHT22;9921;47.186;9.778;2024-01-16T02:33:54;0.20;99.90
19552;DHT22;9921;47.186;9.778;2024-01-16T02:36:21;0.20;99.90
19552;DHT22;9921;47.186;9.778;2024-01-16T02:38:48;0.20;99.90
19552;DHT22;9921;47.186;9.778;2024-01-16T02:41:17;0.10;99.90
19552;DHT22;9921;47.186;9.778;2024-01-16T02:43:44;0.10;99.90
19552;DHT22;9921;47.186;9.778;2024-01-16T02:46:11;0.10;99.90
19552;DHT22;9921;47.186;9.778;2024-01-16T02:48:38;0.00;99.90
19552;DHT22;9921;47.186;9.778;2024-01-16T02:51:05;-0.10;99.90
19552;DHT22;9921;47.186;9.778;2024-01-16T02:53:32;0.00;99.90
19552;DHT22;9921;47.186;9.778;2024-01-16T02:55:59;-0.10;99.90
19552;DHT22;9921;47.186;9.778;2024-01-16T02:58:27;-0.10;99.90
19552;DHT22;9921;47.186;9.778;2024-01-16T03:00:54;-0.10;99.90
19552;DHT22;9921;47.186;9.778;2024-01-16T03:03:21;-0.20;99.90
19552;DHT22;9921;47.186;9.778;2024-01-16T03:05:49;-0.20;99.90
19552;DHT22;9921;47.186;9.778;2024-01-16T03:08:16;-0.20;99.90
19552;DHT22;9921;47.186;9.778;2024-01-16T03:10:43;-0.20;99.90
19552;DHT22;9921;47.186;9.778;2024-01-16T03:13:10;-0.20;99.90
19552;DHT22;9921;47.186;9.778;2024-01-16T03:15:38;-0.20;99.90
19552;DHT22;9921;47.186;9.778;2024-01-16T03:18:06;-0.20;99.90
19552;DHT22;9921;47.186;9.778;2024-01-16T03:20:33;-0.30;99.90
19552;DHT22;9921;47.186;9.778;2024-01-16T03:23:00;-0.30;99.90
19552;DHT22;9921;47.186;9.778;2024-01-16T03:25:27;-0.30;99.90
19552;DHT22;9921;47.186;9.778;2024-01-16T03:27:54;-0.30;99.90
19552;DHT22;9921;47.186;9.778;2024-01-16T03:30:21;-0.30;99.90
19552;DHT22;9921;47.186;9.778;2024-01-16T03:32:49;-0.40;99.90
19552;DHT22;9921;47.186;9.778;2024-01-16T03:35:16;-0.40;99.90
19552;DHT22;9921;47.186;9.778;2024-01-16T03:37:43;-0.40;99.90
19552;DHT22;9921;47.186;9.778;2024-01-16T03:40:11;-0.50;99.90
19552;DHT22;9921;47.186;9.778;2024-01-16T03:42:38;-0.50;99.90
19552;DHT22;9921;47.186;9.778;2024-01-16T03:45:06;-0.50;99.90
19552;DHT22;9921;47.186;9.778;2024-01-16T03:47:33;-0.50;99.90
19552;DHT22;9921;47.186;9.778;2024-01-16T03:50:02;-0.40;99.90
19552;DHT22;9921;47.186;9.778;2024-01-16T03:52:29;-0.40;99.90
19552;DHT22;9921;47.186;9.778;2024-01-16T03:54:55;-0.40;99.90
19552;DHT22;9921;47.186;9.778;2024-01-16T03:57:22;-0.30;99.90
19552;DHT22;9921;47.186;9.778;2024-01-16T03:59:50;-0.40;99.90
19552;DHT22;9921;47.186;9.778;2024-01-16T04:02:17;-0.40;99.90
19552;DHT22;9921;47.186;9.778;2024-01-16T04:04:43;-0.50;99.90
19552;DHT22;9921;47.186;9.778;2024-01-16T04:07:12;-0.50;99.90
19552;DHT22;9921;47.186;9.778;2024-01-16T04:09:38;-0.70;99.90
19552;DHT22;9921;47.186;9.778;2024-01-16T04:12:05;-0.90;99.90
19552;DHT22;9921;47.186;9.778;2024-01-16T04:14:33;-1.10;99.90
19552;DHT22;9921;47.186;9.778;2024-01-16T04:17:01;-1.10;99.90
19552;DHT22;9921;47.186;9.778;2024-01-16T04:19:28;-1.10;99.90
19552;DHT22;9921;47.186;9.778;2024-01-16T04:21:59;-1.20;99.90
19552;DHT22;9921;47.186;9.778;2024-01-16T04:24:28;-1.30;99.90
19552;DHT22;9921;47.186;9.778;2024-01-16T04:26:54;-1.50;99.90
19552;DHT22;9921;47.186;9.778;2024-01-16T04:29:21;-1.60;99.90
19552;DHT22;9921;47.186;9.778;2024-01-16T04:31:48;-1.70;99.90
19552;DHT22;9921;47.186;9.778;2024-01-16T04:34:15;-1.70;99.90
19552;DHT22;9921;47.186;9.778;2024-01-16T04:36:43;-1.70;99.90
19552;DHT22;9921;47.186;9.778;2024-01-16T04:39:10;-1.80;99.90
19552;DHT22;9921;47.186;9.778;2024-01-16T04:41:38;-1.80;99.90
19552;DHT22;9921;47.186;9.778;2024-01-16T04:44:05;-1.70;99.90
19552;DHT22;9921;47.186;9.778;2024-01-16T04:46:32;-1.70;99.90
19552;DHT22;9921;47.186;9.778;2024-01-16T04:48:59;-1.80;99.90
19552;DHT22;9921;47.186;9.778;2024-01-16T04:51:26;-1.90;99.90
19552;DHT22;9921;47.186;9.778;2024-01-16T04:53:53;-1.90;99.90
19552;DHT22;9921;47.186;9.778;2024-01-16T04:56:19;-1.80;99.90
19552;DHT22;9921;47.186;9.778;2024-01-16T04:58:48;-1.90;99.90
19552;DHT22;9921;47.186;9.778;2024-01-16T05:01:15;-2.20;99.90
19552;DHT22;9921;47.186;9.778;2024-01-16T05:03:41;-2.40;99.90
19552;DHT22;9921;47.186;9.778;2024-01-16T05:06:12;-2.60;99.90
19552;DHT22;9921;47.186;9.778;2024-01-16T05:08:40;-2.70;99.90
19552;DHT22;9921;47.186;9.778;2024-01-16T05:11:07;-2.80;99.90
19552;DHT22;9921;47.186;9.778;2024-01-16T05:13:34;-2.80;99.90
19552;DHT22;9921;47.186;9.778;2024-01-16T05:16:02;-2.90;99.90
19552;DHT22;9921;47.186;9.778;2024-01-16T05:18:29;-2.90;99.90
19552;DHT22;9921;47.186;9.778;2024-01-16T05:20:58;-2.90;99.90
19552;DHT22;9921;47.186;9.778;2024-01-16T05:23:25;-2.90;99.90
19552;DHT22;9921;47.186;9.778;2024-01-16T05:25:52;-2.90;99.90
19552;DHT22;9921;47.186;9.778;2024-01-16T05:28:18;-2.90;99.90
19552;DHT22;9921;47.186;9.778;2024-01-16T05:30:45;-3.00;99.90
19552;DHT22;9921;47.186;9.778;2024-01-16T05:33:14;-3.10;99.90
19552;DHT22;9921;47.186;9.778;2024-01-16T05:35:41;-3.10;99.90
19552;DHT22;9921;47.186;9.778;2024-01-16T05:38:08;-3.20;99.90
19552;DHT22;9921;47.186;9.778;2024-01-16T05:40:37;-3.30;99.90
19552;DHT22;9921;47.186;9.778;2024-01-16T05:43:04;-3.30;99.90
19552;DHT22;9921;47.186;9.778;2024-01-16T05:45:31;-3.30;99.90
19552;DHT22;9921;47.186;9.778;2024-01-16T05:47:58;-3.30;99.90
19552;DHT22;9921;47.186;9.778;2024-01-16T05:50:26;-3.30;99.90
19552;DHT22;9921;47.186;9.778;2024-01-16T05:52:53;-3.30;99.90
19552;DHT22;9921;47.186;9.778;2024-01-16T05:55:20;-3.30;99.90
19552;DHT22;9921;47.186;9.778;2024-01-16T05:57:48;-3.30;99.90
19552;DHT22;9921;47.186;9.778;2024-01-16T06:00:15;-3.30;99.90
19552;DHT22;9921;47.186;9.778;2024-01-16T06:02:43;-3.30;99.90
19552;DHT22;9921;47.186;9.778;2024-01-16T06:05:10;-3.20;99.90
19552;DHT22;9921;47.186;9.778;2024-01-16T06:07:38;-3.20;99.90
19552;DHT22;9921;47.186;9.778;2024-01-16T06:10:06;-3.40;99.90
19552;DHT22;9921;47.186;9.778;2024-01-16T06:12:34;-3.50;99.90
19552;DHT22;9921;47.186;9.778;2024-01-16T06:15:01;-3.60;99.90
19552;DHT22;9921;47.186;9.778;2024-01-16T06:17:28;-3.60;99.90
19552;DHT22;9921;47.186;9.778;2024-01-16T06:19:55;-3.70;99.90
19552;DHT22;9921;47.186;9.778;2024-01-16T06:22:22;-3.70;99.90
19552;DHT22;9921;47.186;9.778;2024-01-16T06:24:50;-3.70;99.90
19552;DHT22;9921;47.186;9.778;2024-01-16T06:27:17;-3.70;99.90
19552;DHT22;9921;47.186;9.778;2024-01-16T06:29:45;-3.90;99.90
19552;DHT22;9921;47.186;9.778;2024-01-16T06:32:12;-3.90;99.90
19552;DHT22;9921;47.186;9.778;2024-01-16T06:34:39;-4.00;99.90
19552;DHT22;9921;47.186;9.778;2024-01-16T06:37:06;-4.00;99.90
19552;DHT22;9921;47.186;9.778;2024-01-16T06:39:33;-4.00;99.90
19552;DHT22;9921;47.186;9.778;2024-01-16T06:42:02;-4.10;99.90
19552;DHT22;9921;47.186;9.778;2024-01-16T06:44:30;-4.30;99.90
19552;DHT22;9921;47.186;9.778;2024-01-16T06:46:57;-4.40;99.90
19552;DHT22;9921;47.186;9.778;2024-01-16T06:49:24;-4.40;99.90
19552;DHT22;9921;47.186;9.778;2024-01-16T06:51:52;-4.40;99.90
19552;DHT22;9921;47.186;9.778;2024-01-16T06:54:19;-4.30;99.90
19552;DHT22;9921;47.186;9.778;2024-01-16T06:56:49;-4.40;99.90
19552;DHT22;9921;47.186;9.778;2024-01-16T06:59:17;-4.30;99.90
19552;DHT22;9921;47.186;9.778;2024-01-16T07:01:47;-4.30;99.90
19552;DHT22;9921;47.186;9.778;2024-01-16T07:04:14;-4.30;99.90
19552;DHT22;9921;47.186;9.778;2024-01-16T07:06:41;-4.30;99.90
19552;DHT22;9921;47.186;9.778;2024-01-16T07:09:07;-4.30;99.90
19552;DHT22;9921;47.186;9.778;2024-01-16T07:11:36;-4.10;99.90
19552;DHT22;9921;47.186;9.778;2024-01-16T07:14:03;-4.10;99.90
19552;DHT22;9921;47.186;9.778;2024-01-16T07:16:32;-3.90;99.90
19552;DHT22;9921;47.186;9.778;2024-01-16T07:18:58;-3.80;99.90
19552;DHT22;9921;47.186;9.778;2024-01-16T07:21:25;-3.90;99.90
19552;DHT22;9921;47.186;9.778;2024-01-16T07:23:53;-3.90;99.90
19552;DHT22;9921;47.186;9.778;2024-01-16T07:26:20;-3.90;99.90
19552;DHT22;9921;47.186;9.778;2024-01-16T07:28:47;-4.00;99.90
19552;DHT22;9921;47.186;9.778;2024-01-16T07:31:14;-4.10;99.90
19552;DHT22;9921;47.186;9.778;2024-01-16T07:33:43;-4.00;99.90
19552;DHT22;9921;47.186;9.778;2024-01-16T07:36:13;-4.00;99.90
19552;DHT22;9921;47.186;9.778;2024-01-16T07:38:41;-3.90;99.90
19552;DHT22;9921;47.186;9.778;2024-01-16T07:41:07;-3.80;99.90
19552;DHT22;9921;47.186;9.778;2024-01-16T07:43:35;-3.70;99.90
19552;DHT22;9921;47.186;9.778;2024-01-16T07:46:02;-3.50;99.90
19552;DHT22;9921;47.186;9.778;2024-01-16T07:48:28;-3.50;99.90
19552;DHT22;9921;47.186;9.778;2024-01-16T07:50:56;-3.30;99.90
19552;DHT22;9921;47.186;9.778;2024-01-16T07:53:23;-3.10;99.90
19552;DHT22;9921;47.186;9.778;2024-01-16T07:55:53;-3.00;99.90
19552;DHT22;9921;47.186;9.778;2024-01-16T07:58:20;-3.00;99.90
19552;DHT22;9921;47.186;9.778;2024-01-16T08:00:47;-3.10;99.90
19552;DHT22;9921;47.186;9.778;2024-01-16T08:03:14;-3.30;99.90
19552;DHT22;9921;47.186;9.778;2024-01-16T08:05:41;-3.50;99.90
19552;DHT22;9921;47.186;9.778;2024-01-16T08:08:10;-3.60;99.90
19552;DHT22;9921;47.186;9.778;2024-01-16T08:10:37;-3.70;99.90
19552;DHT22;9921;47.186;9.778;2024-01-16T08:13:04;-3.70;99.90
19552;DHT22;9921;47.186;9.778;2024-01-16T08:15:31;-3.90;99.90
19552;DHT22;9921;47.186;9.778;2024-01-16T08:17:58;-3.90;99.90
19552;DHT22;9921;47.186;9.778;2024-01-16T08:20:25;-4.10;99.90
19552;DHT22;9921;47.186;9.778;2024-01-16T08:22:53;-4.10;99.90
19552;DHT22;9921;47.186;9.778;2024-01-16T08:25:21;-4.40;99.90
19552;DHT22;9921;47.186;9.778;2024-01-16T08:27:48;-4.60;99.90
19552;DHT22;9921;47.186;9.778;2024-01-16T08:30:15;-4.70;99.90
19552;DHT22;9921;47.186;9.778;2024-01-16T08:32:42;-4.70;99.90
19552;DHT22;9921;47.186;9.778;2024-01-16T08:35:09;-4.60;99.90
19552;DHT22;9921;47.186;9.778;2024-01-16T08:37:36;-4.50;99.90
19552;DHT22;9921;47.186;9.778;2024-01-16T08:40:03;-4.50;99.90
19552;DHT22;9921;47.186;9.778;2024-01-16T08:42:32;-4.40;99.90
19552;DHT22;9921;47.186;9.778;2024-01-16T08:44:59;-4.20;99.90
19552;DHT22;9921;47.186;9.778;2024-01-16T08:47:26;-4.10;99.90
19552;DHT22;9921;47.186;9.778;2024-01-16T08:49:53;-3.90;99.90
19552;DHT22;9921;47.186;9.778;2024-01-16T08:52:20;-3.80;99.90
19552;DHT22;9921;47.186;9.778;2024-01-16T08:54:47;-3.80;99.90
19552;DHT22;9921;47.186;9.778;2024-01-16T08:57:14;-3.60;99.90
19552;DHT22;9921;47.186;9.778;2024-01-16T08:59:42;-3.50;99.90
19552;DHT22;9921;47.186;9.778;2024-01-16T09:02:09;-3.30;99.90
19552;DHT22;9921;47.186;9.778;2024-01-16T09:04:36;-3.10;99.90
19552;DHT22;9921;47.186;9.778;2024-01-16T09:07:03;-2.70;99.90
19552;DHT22;9921;47.186;9.778;2024-01-16T09:09:30;-2.40;99.90
19552;DHT22;9921;47.186;9.778;2024-01-16T09:11:57;-2.10;99.90
19552;DHT22;9921;47.186;9.778;2024-01-16T09:14:24;-1.80;99.90
19552;DHT22;9921;47.186;9.778;2024-01-16T09:16:54;-1.60;99.90
19552;DHT22;9921;47.186;9.778;2024-01-16T09:19:21;-1.20;99.90
19552;DHT22;9921;47.186;9.778;2024-01-16T09:21:47;-0.90;99.90
19552;DHT22;9921;47.186;9.778;2024-01-16T09:24:14;-0.40;99.90
19552;DHT22;9921;47.186;9.778;2024-01-16T09:26:41;0.10;99.90
19552;DHT22;9921;47.186;9.778;2024-01-16T09:29:09;0.30;99.90
19552;DHT22;9921;47.186;9.778;2024-01-16T09:31:36;0.80;99.90
19552;DHT22;9921;47.186;9.778;2024-01-16T09:34:05;1.20;99.90
19552;DHT22;9921;47.186;9.778;2024-01-16T09:36:32;1.20;99.90
19552;DHT22;9921;47.186;9.778;2024-01-16T09:39:01;1.30;99.90
19552;DHT22;9921;47.186;9.778;2024-01-16T09:41:28;1.10;99.90
19552;DHT22;9921;47.186;9.778;2024-01-16T09:43:58;1.00;99.90
19552;DHT22;9921;47.186;9.778;2024-01-16T09:46:29;0.90;99.90
19552;DHT22;9921;47.186;9.778;2024-01-16T09:48:59;0.90;99.90
19552;DHT22;9921;47.186;9.778;2024-01-16T09:51:30;1.10;99.90
19552;DHT22;9921;47.186;9.778;2024-01-16T09:53:57;1.20;99.90
19552;DHT22;9921;47.186;9.778;2024-01-16T09:56:24;1.30;99.90
19552;DHT22;9921;47.186;9.778;2024-01-16T09:58:58;1.30;99.90
19552;DHT22;9921;47.186;9.778;2024-01-16T10:01:29;1.40;99.90
19552;DHT22;9921;47.186;9.778;2024-01-16T10:03:57;1.50;99.90
19552;DHT22;9921;47.186;9.778;2024-01-16T10:06:24;1.60;99.90
19552;DHT22;9921;47.186;9.778;2024-01-16T10:08:55;1.50;99.90
19552;DHT22;9921;47.186;9.778;2024-01-16T10:11:21;1.60;99.90
19552;DHT22;9921;47.186;9.778;2024-01-16T10:13:49;1.60;99.90
19552;DHT22;9921;47.186;9.778;2024-01-16T10:16:16;1.70;99.90
19552;DHT22;9921;47.186;9.778;2024-01-16T10:18:42;1.80;99.90
19552;DHT22;9921;47.186;9.778;2024-01-16T10:21:20;1.80;99.90
19552;DHT22;9921;47.186;9.778;2024-01-16T10:23:49;1.80;99.90
19552;DHT22;9921;47.186;9.778;2024-01-16T10:26:17;1.60;99.90
19552;DHT22;9921;47.186;9.778;2024-01-16T10:28:44;1.40;99.90
19552;DHT22;9921;47.186;9.778;2024-01-16T10:31:12;1.30;99.90
19552;DHT22;9921;47.186;9.778;2024-01-16T10:33:40;1.20;99.90
19552;DHT22;9921;47.186;9.778;2024-01-16T10:36:09;1.10;99.90
19552;DHT22;9921;47.186;9.778;2024-01-16T10:38:37;0.90;99.90
19552;DHT22;9921;47.186;9.778;2024-01-16T10:41:06;0.80;99.90
19552;DHT22;9921;47.186;9.778;2024-01-16T10:43:34;0.80;99.90
19552;DHT22;9921;47.186;9.778;2024-01-16T10:46:11;0.70;99.90
19552;DHT22;9921;47.186;9.778;2024-01-16T10:48:40;0.80;99.90
19552;DHT22;9921;47.186;9.778;2024-01-16T10:51:10;0.80;99.90
19552;DHT22;9921;47.186;9.778;2024-01-16T10:53:42;0.90;99.90
19552;DHT22;9921;47.186;9.778;2024-01-16T10:56:10;1.00;99.90
19552;DHT22;9921;47.186;9.778;2024-01-16T10:58:41;1.10;99.90
19552;DHT22;9921;47.186;9.778;2024-01-16T11:01:10;1.20;99.90
19552;DHT22;9921;47.186;9.778;2024-01-16T11:03:40;1.40;99.90
19552;DHT22;9921;47.186;9.778;2024-01-16T11:06:09;1.60;99.90
19552;DHT22;9921;47.186;9.778;2024-01-16T11:08:37;1.70;99.90
19552;DHT22;9921;47.186;9.778;2024-01-16T11:11:04;1.70;99.90
19552;DHT22;9921;47.186;9.778;2024-01-16T11:13:33;1.80;99.90
19552;DHT22;9921;47.186;9.778;2024-01-16T11:16:03;1.80;99.90
19552;DHT22;9921;47.186;9.778;2024-01-16T11:18:31;1.70;99.90
19552;DHT22;9921;47.186;9.778;2024-01-16T11:20:58;1.80;99.90
19552;DHT22;9921;47.186;9.778;2024-01-16T11:23:25;1.90;99.90
19552;DHT22;9921;47.186;9.778;2024-01-16T11:25:52;2.10;99.90
19552;DHT22;9921;47.186;9.778;2024-01-16T11:28:19;2.30;99.90
19552;DHT22;9921;47.186;9.778;2024-01-16T11:30:46;2.30;99.90
19552;DHT22;9921;47.186;9.778;2024-01-16T11:33:45;2.40;99.90
19552;DHT22;9921;47.186;9.778;2024-01-16T11:36:42;2.40;99.90
19552;DHT22;9921;47.186;9.778;2024-01-16T11:39:16;2.40;99.90
19552;DHT22;9921;47.186;9.778;2024-01-16T11:41:50;2.60;99.90
19552;DHT22;9921;47.186;9.778;2024-01-16T11:44:38;2.70;99.90
19552;DHT22;9921;47.186;9.778;2024-01-16T11:47:05;2.70;99.90
19552;DHT22;9921;47.186;9.778;2024-01-16T11:49:35;2.80;99.90
19552;DHT22;9921;47.186;9.778;2024-01-16T11:52:02;2.80;99.90
19552;DHT22;9921;47.186;9.778;2024-01-16T11:54:29;2.70;99.90
19552;DHT22;9921;47.186;9.778;2024-01-16T12:00:02;2.80;99.90
19552;DHT22;9921;47.186;9.778;2024-01-16T12:02:51;2.80;99.90
19552;DHT22;9921;47.186;9.778;2024-01-16T12:05:20;2.70;99.90
19552;DHT22;9921;47.186;9.778;2024-01-16T12:07:49;2.70;99.90
19552;DHT22;9921;47.186;9.778;2024-01-16T12:10:16;2.70;99.90
19552;DHT22;9921;47.186;9.778;2024-01-16T12:12:44;2.60;99.90
19552;DHT22;9921;47.186;9.778;2024-01-16T12:15:15;2.50;99.90
19552;DHT22;9921;47.186;9.778;2024-01-16T12:17:58;2.30;99.90
19552;DHT22;9921;47.186;9.778;2024-01-16T12:20:28;2.20;99.90
19552;DHT22;9921;47.186;9.778;2024-01-16T12:22:57;2.10;99.90
19552;DHT22;9921;47.186;9.778;2024-01-16T12:25:23;2.10;99.90
19552;DHT22;9921;47.186;9.778;2024-01-16T12:27:57;2.10;99.90
19552;DHT22;9921;47.186;9.778;2024-01-16T12:30:25;2.10;99.90
19552;DHT22;9921;47.186;9.778;2024-01-16T12:33:03;2.00;99.90
19552;DHT22;9921;47.186;9.778;2024-01-16T12:35:33;1.90;99.90
19552;DHT22;9921;47.186;9.778;2024-01-16T12:38:01;1.80;99.90
19552;DHT22;9921;47.186;9.778;2024-01-16T12:40:28;1.80;99.90
19552;DHT22;9921;47.186;9.778;2024-01-16T12:42:55;1.80;99.90
19552;DHT22;9921;47.186;9.778;2024-01-16T12:45:23;1.90;99.90
19552;DHT22;9921;47.186;9.778;2024-01-16T12:47:53;1.90;99.90
19552;DHT22;9921;47.186;9.778;2024-01-16T12:50:24;2.00;99.90
19552;DHT22;9921;47.186;9.778;2024-01-16T12:53:02;2.00;99.90
19552;DHT22;9921;47.186;9.778;2024-01-16T12:55:30;2.00;99.90
19552;DHT22;9921;47.186;9.778;2024-01-16T12:58:21;2.00;99.90
19552;DHT22;9921;47.186;9.778;2024-01-16T13:00:51;2.10;99.90
19552;DHT22;9921;47.186;9.778;2024-01-16T13:03:18;2.20;99.90
19552;DHT22;9921;47.186;9.778;2024-01-16T13:05:54;2.20;99.90
19552;DHT22;9921;47.186;9.778;2024-01-16T13:08:23;2.30;99.90
19552;DHT22;9921;47.186;9.778;2024-01-16T13:11:02;2.30;99.90
19552;DHT22;9921;47.186;9.778;2024-01-16T13:13:30;2.40;99.90
19552;DHT22;9921;47.186;9.778;2024-01-16T13:15:57;2.40;99.90
19552;DHT22;9921;47.186;9.778;2024-01-16T13:18:26;2.30;99.90
19552;DHT22;9921;47.186;9.778;2024-01-16T13:20:54;2.30;99.90
19552;DHT22;9921;47.186;9.778;2024-01-16T13:23:24;2.30;99.90
19552;DHT22;9921;47.186;9.778;2024-01-16T13:25:51;2.30;99.90
19552;DHT22;9921;47.186;9.778;2024-01-16T13:28:20;2.30;99.90
19552;DHT22;9921;47.186;9.778;2024-01-16T13:30:48;2.30;99.90
19552;DHT22;9921;47.186;9.778;2024-01-16T13:33:15;2.20;99.90
19552;DHT22;9921;47.186;9.778;2024-01-16T13:35:44;2.20;99.90
19552;DHT22;9921;47.186;9.778;2024-01-16T13:38:12;2.10;99.90
19552;DHT22;9921;47.186;9.778;2024-01-16T13:40:42;2.10;99.90
19552;DHT22;9921;47.186;9.778;2024-01-16T13:43:09;2.00;99.90
19552;DHT22;9921;47.186;9.778;2024-01-16T13:45:37;2.00;99.90
19552;DHT22;9921;47.186;9.778;2024-01-16T13:48:05;1.90;99.90
19552;DHT22;9921;47.186;9.778;2024-01-16T13:50:33;1.80;99.90
19552;DHT22;9921;47.186;9.778;2024-01-16T13:53:00;1.80;99.90
19552;DHT22;9921;47.186;9.778;2024-01-16T13:55:27;1.70;99.90
19552;DHT22;9921;47.186;9.778;2024-01-16T13:57:55;1.70;99.90
19552;DHT22;9921;47.186;9.778;2024-01-16T14:00:23;1.60;99.90
19552;DHT22;9921;47.186;9.778;2024-01-16T14:02:50;1.60;99.90
19552;DHT22;9921;47.186;9.778;2024-01-16T14:05:18;1.50;99.90
19552;DHT22;9921;47.186;9.778;2024-01-16T14:07:46;1.50;99.90
19552;DHT22;9921;47.186;9.778;2024-01-16T14:10:14;1.50;99.90
19552;DHT22;9921;47.186;9.778;2024-01-16T14:12:42;1.50;99.90
19552;DHT22;9921;47.186;9.778;2024-01-16T14:15:12;1.50;99.90
19552;DHT22;9921;47.186;9.778;2024-01-16T14:17:45;1.50;99.90
19552;DHT22;9921;47.186;9.778;2024-01-16T14:20:12;1.60;99.90
19552;DHT22;9921;47.186;9.778;2024-01-16T14:22:40;1.60;99.90
19552;DHT22;9921;47.186;9.778;2024-01-16T14:25:07;1.40;99.90
19552;DHT22;9921;47.186;9.778;2024-01-16T14:27:38;1.50;99.90
19552;DHT22;9921;47.186;9.778;2024-01-16T14:30:06;1.30;99.90
19552;DHT22;9921;47.186;9.778;2024-01-16T14:32:35;1.30;99.90
19552;DHT22;9921;47.186;9.778;2024-01-16T14:35:03;1.20;99.90
19552;DHT22;9921;47.186;9.778;2024-01-16T14:37:30;1.20;99.90
19552;DHT22;9921;47.186;9.778;2024-01-16T14:40:00;1.10;99.90
19552;DHT22;9921;47.186;9.778;2024-01-16T14:42:28;0.70;99.90
19552;DHT22;9921;47.186;9.778;2024-01-16T14:44:55;0.50;99.90
19552;DHT22;9921;47.186;9.778;2024-01-16T14:47:22;0.30;99.90
19552;DHT22;9921;47.186;9.778;2024-01-16T14:49:50;0.20;99.90
19552;DHT22;9921;47.186;9.778;2024-01-16T14:52:20;0.10;99.90
19552;DHT22;9921;47.186;9.778;2024-01-16T14:54:47;0.00;99.90
19552;DHT22;9921;47.186;9.778;2024-01-16T14:57:15;-0.10;99.90
19552;DHT22;9921;47.186;9.778;2024-01-16T14:59:42;-0.20;99.90
19552;DHT22;9921;47.186;9.778;2024-01-16T15:02:10;-0.20;99.90
19552;DHT22;9921;47.186;9.778;2024-01-16T15:04:39;-0.20;99.90
19552;DHT22;9921;47.186;9.778;2024-01-16T15:07:06;-0.20;99.90
19552;DHT22;9921;47.186;9.778;2024-01-16T15:09:33;-0.30;99.90
19552;DHT22;9921;47.186;9.778;2024-01-16T15:12:04;-0.30;99.90
19552;DHT22;9921;47.186;9.778;2024-01-16T15:14:31;-0.30;99.90
19552;DHT22;9921;47.186;9.778;2024-01-16T15:16:58;-0.30;99.90
19552;DHT22;9921;47.186;9.778;2024-01-16T15:19:26;-0.40;99.90
19552;DHT22;9921;47.186;9.778;2024-01-16T15:21:53;-0.40;99.90
19552;DHT22;9921;47.186;9.778;2024-01-16T15:24:21;-0.40;99.90
19552;DHT22;9921;47.186;9.778;2024-01-16T15:26:52;-0.50;99.90
19552;DHT22;9921;47.186;9.778;2024-01-16T15:29:19;-0.50;99.90
19552;DHT22;9921;47.186;9.778;2024-01-16T15:31:46;-0.50;99.90
19552;DHT22;9921;47.186;9.778;2024-01-16T15:34:12;-0.60;99.90
19552;DHT22;9921;47.186;9.778;2024-01-16T15:36:39;-0.70;99.90
19552;DHT22;9921;47.186;9.778;2024-01-16T15:39:06;-1.00;99.90
19552;DHT22;9921;47.186;9.778;2024-01-16T15:41:37;-1.00;99.90
19552;DHT22;9921;47.186;9.778;2024-01-16T15:44:05;-1.10;99.90
19552;DHT22;9921;47.186;9.778;2024-01-16T15:46:32;-1.20;99.90
19552;DHT22;9921;47.186;9.778;2024-01-16T15:48:59;-1.20;99.90
19552;DHT22;9921;47.186;9.778;2024-01-16T15:51:26;-1.20;99.90
19552;DHT22;9921;47.186;9.778;2024-01-16T15:53:53;-1.30;99.90
19552;DHT22;9921;47.186;9.778;2024-01-16T15:56:20;-1.30;99.90
19552;DHT22;9921;47.186;9.778;2024-01-16T15:58:48;-1.30;99.90
19552;DHT22;9921;47.186;9.778;2024-01-16T16:01:15;-1.50;99.90
19552;DHT22;9921;47.186;9.778;2024-01-16T16:03:42;-1.60;99.90